Angleton, Texas
Current Conditions -  °F | °C
As of 10:53 AM on Tuesday 27 Jan 2015 (Local Time) from KLBX Reporting Station
Clear Clear  
Wind Chill: 21°   Ceiling: Unl
Heat Index: 21°   Visibility: 10mi
Dew Point:   Wind: 9mph
Humidity: 35%   Direction: 310°NW
Pressure: 30.18"   Gusts: NA
Location:  29.16°N, 95.43°W
Report Text: KLBX 271653Z AUTO 31008KT 10SM CLR 21/05 A3018 RMK AO2 SLP218 T02110050
Loading
Personal Weather Stations






























Interactive Weather Map New forecast layout! Learn more

10-Day Weather Forecast

Advertisements
Track Severe Weather on mobile